Morgan Park, Minnesota
Current Conditions -  °F | °C
As of 5:35 PM on Saturday 22 Nov 2014 (Local Time) from KSUW Reporting Station
Overcast Overcast  
Wind Chill: 29°   Ceiling: 1400
Heat Index: 36°   Visibility: 7mi
Dew Point: 32°   Wind: 9mph
Humidity: 87%   Direction: 180°S
Pressure: 29.62"   Gusts: NA
Location:  46.6753°N, 92.2408°W
Report Text: KSUW 222335Z AUTO 18008KT 7SM OVC014 02/00 A2962 RMK AO2 T00200000
Loading
Personal Weather Stations






























Interactive Weather Map New forecast layout! Learn more

10-Day Weather Forecast

Advertisements
Track Severe Weather on mobile